createdAt,value
2023-01-21T00:02:18.491Z,1.50
2023-01-21T00:04:47.123Z,1.85
2023-01-21T00:07:13.989Z,1.24
2023-01-21T00:09:40.957Z,1.14
2023-01-21T00:12:07.826Z,1.17
2023-01-21T00:14:34.542Z,1.17
2023-01-21T00:17:01.581Z,1.47
2023-01-21T00:19:29.780Z,1.11
2023-01-21T00:21:56.911Z,1.06
2023-01-21T00:24:24.654Z,1.36
2023-01-21T00:26:54.108Z,1.45
2023-01-21T00:29:32.119Z,1.20
2023-01-21T00:31:59.166Z,1.40
2023-01-21T00:34:26.066Z,1.16
2023-01-21T00:36:55.089Z,1.16
2023-01-21T00:39:23.623Z,1.20
2023-01-21T00:41:50.386Z,1.19
2023-01-21T00:44:17.950Z,1.07
2023-01-21T00:46:44.740Z,1.15
2023-01-21T00:49:11.467Z,1.08
2023-01-21T00:51:38.356Z,1.17
2023-01-21T00:54:05.187Z,1.29
2023-01-21T00:56:31.832Z,1.56
2023-01-21T00:58:58.640Z,1.24
2023-01-21T01:01:27.934Z,1.25
2023-01-21T01:03:55.037Z,1.58
2023-01-21T01:06:22.920Z,1.17
2023-01-21T01:08:50.101Z,1.56
2023-01-21T01:11:17.486Z,1.07
2023-01-21T01:13:44.416Z,1.36
2023-01-21T01:16:13.143Z,1.21
2023-01-21T01:18:40.080Z,1.06
2023-01-21T01:21:07.075Z,1.19
2023-01-21T01:23:33.906Z,1.36
2023-01-21T01:26:01.712Z,1.33
2023-01-21T01:28:28.610Z,1.09
2023-01-21T01:30:55.653Z,1.35
2023-01-21T01:33:22.784Z,1.68
2023-01-21T01:35:49.882Z,1.75
2023-01-21T01:38:17.548Z,1.40
2023-01-21T01:40:45.583Z,1.55
2023-01-21T01:43:18.524Z,1.12
2023-01-21T01:45:45.804Z,1.52
2023-01-21T01:48:16.475Z,1.31
2023-01-21T01:50:43.455Z,1.33
2023-01-21T01:53:12.228Z,1.86
2023-01-21T01:55:40.124Z,1.73
2023-01-21T01:58:09.022Z,1.72
2023-01-21T02:00:36.028Z,1.30
2023-01-21T02:03:22.345Z,1.21
2023-01-21T02:05:49.127Z,1.44
2023-01-21T02:08:16.013Z,1.45
2023-01-21T02:10:42.773Z,1.56
2023-01-21T02:13:10.041Z,1.46
2023-01-21T02:15:52.393Z,1.58
2023-01-21T02:18:31.747Z,1.62
2023-01-21T02:21:37.061Z,1.92
2023-01-21T02:24:22.862Z,1.57
2023-01-21T02:27:12.478Z,1.44
2023-01-21T02:29:58.126Z,1.43
2023-01-21T02:32:30.139Z,1.52
2023-01-21T02:35:18.483Z,1.57
2023-01-21T02:37:55.383Z,1.65
2023-01-21T02:40:29.557Z,1.40
2023-01-21T02:43:07.201Z,1.65
2023-01-21T02:45:37.717Z,1.56
2023-01-21T02:48:27.997Z,1.53
2023-01-21T02:50:54.982Z,1.39
2023-01-21T02:53:29.353Z,1.40
2023-01-21T02:55:57.818Z,1.70
2023-01-21T02:58:28.871Z,1.56
2023-01-21T03:01:11.560Z,1.52
2023-01-21T03:03:56.308Z,1.74
2023-01-21T03:06:36.650Z,1.16
2023-01-21T03:09:03.344Z,1.03
2023-01-21T03:11:30.143Z,1.29
2023-01-21T03:14:28.424Z,1.40
2023-01-21T03:16:58.803Z,1.47
2023-01-21T03:19:30.560Z,1.43
2023-01-21T03:21:58.864Z,1.74
2023-01-21T03:24:26.278Z,1.53
2023-01-21T03:26:54.378Z,1.67
2023-01-21T03:29:24.995Z,2.02
2023-01-21T03:31:55.353Z,2.01
2023-01-21T03:34:23.911Z,1.91
2023-01-21T03:36:50.636Z,1.26
2023-01-21T03:39:36.537Z,1.69
2023-01-21T03:42:03.684Z,1.51
2023-01-21T03:44:30.635Z,1.41
2023-01-21T03:47:04.006Z,1.49
2023-01-21T03:49:53.367Z,1.71
2023-01-21T03:52:22.230Z,1.62
2023-01-21T03:54:49.458Z,1.62
2023-01-21T03:57:16.239Z,1.66
2023-01-21T03:59:43.163Z,1.77
2023-01-21T04:02:10.158Z,1.69
2023-01-21T04:04:36.925Z,1.58
2023-01-21T04:07:03.851Z,1.67
2023-01-21T04:09:30.721Z,1.48
2023-01-21T04:11:58.663Z,1.51
2023-01-21T04:14:31.065Z,1.33
2023-01-21T04:16:57.965Z,1.60
2023-01-21T04:19:29.329Z,1.78
2023-01-21T04:21:56.133Z,1.35
2023-01-21T04:24:22.965Z,1.35
2023-01-21T04:26:49.795Z,1.42
2023-01-21T04:29:17.403Z,1.43
2023-01-21T04:31:44.540Z,1.51
2023-01-21T04:34:11.348Z,1.58
2023-01-21T04:36:38.113Z,1.46
2023-01-21T04:39:04.779Z,1.50
2023-01-21T04:41:31.502Z,1.77
2023-01-21T04:43:58.424Z,1.71
2023-01-21T04:46:25.298Z,1.41
2023-01-21T04:48:52.664Z,1.44
2023-01-21T04:51:19.507Z,1.26
2023-01-21T04:53:46.377Z,1.56
2023-01-21T04:56:13.666Z,1.63
2023-01-21T04:58:40.511Z,1.42
2023-01-21T05:01:07.409Z,1.42
2023-01-21T05:03:35.856Z,1.44
2023-01-21T05:06:02.697Z,1.38
2023-01-21T05:08:29.430Z,1.61
2023-01-21T05:10:56.596Z,1.50
2023-01-21T05:13:23.375Z,1.61
2023-01-21T05:15:50.332Z,1.20
2023-01-21T05:18:19.218Z,1.43
2023-01-21T05:20:45.987Z,1.34
2023-01-21T05:23:12.744Z,1.40
2023-01-21T05:25:39.549Z,1.27
2023-01-21T05:28:06.312Z,1.69
2023-01-21T05:30:33.191Z,1.37
2023-01-21T05:33:00.047Z,1.46
2023-01-21T05:35:26.892Z,1.56
2023-01-21T05:37:53.677Z,1.38
2023-01-21T05:40:20.637Z,1.54
2023-01-21T05:42:47.510Z,1.78
2023-01-21T05:45:14.778Z,1.43
2023-01-21T05:47:41.600Z,1.25
2023-01-21T05:50:09.826Z,1.40
2023-01-21T05:52:36.925Z,1.81
2023-01-21T05:55:04.700Z,1.27
2023-01-21T05:57:40.812Z,1.57
2023-01-21T06:00:08.114Z,1.29
2023-01-21T06:02:34.940Z,1.09
2023-01-21T06:05:01.695Z,1.05
2023-01-21T06:07:28.425Z,1.36
2023-01-21T06:09:55.147Z,1.58
2023-01-21T06:12:23.900Z,1.53
2023-01-21T06:14:51.456Z,1.11
2023-01-21T06:17:18.138Z,1.64
2023-01-21T06:19:44.895Z,1.13
2023-01-21T06:22:18.436Z,1.13
2023-01-21T06:24:45.311Z,1.28
2023-01-21T06:27:12.565Z,1.25
2023-01-21T06:29:39.519Z,1.45
2023-01-21T06:32:06.565Z,1.50
2023-01-21T06:34:33.370Z,1.10
2023-01-21T06:37:00.086Z,1.34
2023-01-21T06:39:26.817Z,1.32
2023-01-21T06:41:55.244Z,1.19
2023-01-21T06:44:22.724Z,1.51
2023-01-21T06:47:00.114Z,1.24
2023-01-21T06:49:27.690Z,1.25
2023-01-21T06:51:54.585Z,1.13
2023-01-21T06:54:21.396Z,1.23
2023-01-21T06:56:48.079Z,1.11
2023-01-21T06:59:14.812Z,1.26
2023-01-21T07:01:41.605Z,1.23
2023-01-21T07:04:08.380Z,1.37
2023-01-21T07:06:35.176Z,1.37
2023-01-21T07:09:01.870Z,1.52
2023-01-21T07:11:29.085Z,1.26
2023-01-21T07:13:55.809Z,1.46
2023-01-21T07:16:22.635Z,1.68
2023-01-21T07:18:49.412Z,1.09
2023-01-21T07:21:16.339Z,1.20
2023-01-21T07:23:43.114Z,1.32
2023-01-21T07:26:09.866Z,1.05
2023-01-21T07:28:36.901Z,1.19
2023-01-21T07:31:04.429Z,1.52
2023-01-21T07:33:31.236Z,1.45
2023-01-21T07:35:58.007Z,1.46
2023-01-21T07:38:25.929Z,1.47
2023-01-21T07:40:52.622Z,1.43
2023-01-21T07:43:19.507Z,1.33
2023-01-21T07:45:46.397Z,1.14
2023-01-21T07:48:13.293Z,1.10
2023-01-21T07:50:40.070Z,1.16
2023-01-21T07:53:06.922Z,1.69
2023-01-21T07:55:33.842Z,1.36
2023-01-21T07:58:00.635Z,1.25
2023-01-21T08:00:27.379Z,1.47
2023-01-21T08:02:55.335Z,1.75
2023-01-21T08:05:23.313Z,1.79
2023-01-21T08:07:50.420Z,1.33
2023-01-21T08:10:17.620Z,1.27
2023-01-21T08:12:44.626Z,1.42
2023-01-21T08:15:11.772Z,1.20
2023-01-21T08:17:39.793Z,1.22
2023-01-21T08:20:08.304Z,1.36
2023-01-21T08:22:35.096Z,1.62
2023-01-21T08:25:01.995Z,1.06
2023-01-21T08:27:28.866Z,1.26
2023-01-21T08:29:55.862Z,1.29
2023-01-21T08:32:22.717Z,1.56
2023-01-21T08:34:50.267Z,1.67
2023-01-21T08:37:17.211Z,1.25
2023-01-21T08:39:43.939Z,1.06
2023-01-21T08:42:10.812Z,1.56
2023-01-21T08:44:37.631Z,1.47
2023-01-21T08:47:04.409Z,1.51
2023-01-21T08:49:32.458Z,1.31
2023-01-21T08:52:21.006Z,1.57
2023-01-21T08:54:50.939Z,1.43
2023-01-21T08:57:17.768Z,1.26
2023-01-21T08:59:44.478Z,1.32
2023-01-21T09:02:11.511Z,1.71
2023-01-21T09:04:38.363Z,1.31
2023-01-21T09:07:05.108Z,1.30
2023-01-21T09:09:31.924Z,1.31
2023-01-21T09:11:58.753Z,1.44
2023-01-21T09:14:26.540Z,1.58
2023-01-21T09:16:56.011Z,1.58
2023-01-21T09:19:24.210Z,1.88
2023-01-21T09:21:52.734Z,1.39
2023-01-21T09:24:19.611Z,1.21
2023-01-21T09:26:46.485Z,1.41
2023-01-21T09:29:13.419Z,1.54
2023-01-21T09:31:40.318Z,1.40
2023-01-21T09:34:07.185Z,1.33
2023-01-21T09:36:35.094Z,1.51
2023-01-21T09:39:02.565Z,1.33
2023-01-21T09:41:37.854Z,1.56
2023-01-21T09:44:13.091Z,1.72
2023-01-21T09:46:43.276Z,1.99
2023-01-21T09:49:15.600Z,1.62
2023-01-21T09:51:52.369Z,1.62
2023-01-21T09:54:25.961Z,1.34
2023-01-21T09:57:00.184Z,1.44
2023-01-21T09:59:39.245Z,1.37
2023-01-21T10:02:09.865Z,1.25
2023-01-21T10:04:59.640Z,1.34
2023-01-21T10:07:34.463Z,1.25
2023-01-21T10:10:18.320Z,1.35
2023-01-21T10:12:54.438Z,1.25
2023-01-21T10:15:30.074Z,1.47
2023-01-21T10:17:59.885Z,1.67
2023-01-21T10:20:29.398Z,1.72
2023-01-21T10:23:07.675Z,1.84
2023-01-21T10:25:36.914Z,1.79
2023-01-21T10:28:23.957Z,1.61
2023-01-21T10:30:52.268Z,1.55
2023-01-21T10:33:24.195Z,1.25
2023-01-21T10:35:57.095Z,1.50
2023-01-21T10:38:39.010Z,1.43
2023-01-21T10:41:29.063Z,1.35
2023-01-21T10:44:06.685Z,1.40
2023-01-21T10:46:36.452Z,1.52
2023-01-21T10:49:09.241Z,1.37
2023-01-21T10:51:54.129Z,1.54
2023-01-21T10:54:30.072Z,1.39
2023-01-21T10:57:19.489Z,1.48
2023-01-21T10:59:46.642Z,1.83
2023-01-21T11:02:27.881Z,1.83
2023-01-21T11:04:54.983Z,1.69
2023-01-21T11:07:22.613Z,1.71
2023-01-21T11:09:49.533Z,1.37
2023-01-21T11:12:20.657Z,1.95
2023-01-21T11:14:54.057Z,1.95
2023-01-21T11:17:32.375Z,1.94
2023-01-21T11:20:00.829Z,2.29
2023-01-21T11:22:29.897Z,1.99
2023-01-21T11:24:56.684Z,2.03
2023-01-21T11:27:23.363Z,1.86
2023-01-21T11:29:50.787Z,1.78
2023-01-21T11:32:26.046Z,1.74
2023-01-21T11:34:59.343Z,1.71
2023-01-21T11:37:30.494Z,1.40
2023-01-21T11:39:57.317Z,1.60
2023-01-21T11:42:24.776Z,1.77
2023-01-21T11:44:57.718Z,1.70
2023-01-21T11:47:36.292Z,1.40
2023-01-21T11:50:13.669Z,1.59
2023-01-21T11:52:41.052Z,1.57
2023-01-21T11:55:26.369Z,1.54
2023-01-21T11:57:55.150Z,1.48
2023-01-21T12:00:27.706Z,1.75
2023-01-21T12:03:03.348Z,1.55
2023-01-21T12:05:35.045Z,1.59
2023-01-21T12:08:03.777Z,1.43
2023-01-21T12:10:32.573Z,1.44
2023-01-21T12:13:17.000Z,1.76
2023-01-21T12:15:43.851Z,1.73
2023-01-21T12:18:30.264Z,1.61
2023-01-21T12:21:00.522Z,1.32
2023-01-21T12:23:37.248Z,1.68
2023-01-21T12:26:17.820Z,1.50
2023-01-21T12:29:02.841Z,1.31
2023-01-21T12:31:43.055Z,1.51
2023-01-21T12:34:09.882Z,1.39
2023-01-21T12:36:40.770Z,1.46
2023-01-21T12:39:13.295Z,1.42
2023-01-21T12:41:42.523Z,1.40
2023-01-21T12:44:18.238Z,1.40
2023-01-21T12:46:48.141Z,1.38
2023-01-21T12:49:19.602Z,1.82
2023-01-21T12:51:48.045Z,1.87
2023-01-21T12:54:18.214Z,1.65
2023-01-21T12:56:51.337Z,1.67
2023-01-21T12:59:27.010Z,1.53
2023-01-21T13:01:53.908Z,1.32
2023-01-21T13:04:29.061Z,1.49
2023-01-21T13:06:56.666Z,1.44
2023-01-21T13:09:29.162Z,1.20
2023-01-21T13:12:03.518Z,1.88
2023-01-21T13:14:41.261Z,1.43
2023-01-21T13:17:14.098Z,1.31
2023-01-21T13:19:40.871Z,1.20
2023-01-21T13:22:10.351Z,1.39
2023-01-21T13:24:56.011Z,1.09
2023-01-21T13:27:25.520Z,1.01
2023-01-21T13:30:01.620Z,1.53
2023-01-21T13:32:47.240Z,1.20
2023-01-21T13:35:20.278Z,1.31
2023-01-21T13:37:49.987Z,1.16
2023-01-21T13:40:37.337Z,1.20
2023-01-21T13:43:25.218Z,1.62
2023-01-21T13:46:00.507Z,1.50
2023-01-21T13:48:42.370Z,1.09
2023-01-21T13:51:09.303Z,1.18
2023-01-21T13:53:50.515Z,1.54
2023-01-21T13:56:32.688Z,1.43
2023-01-21T13:59:03.181Z,1.44
2023-01-21T14:01:36.572Z,1.28
2023-01-21T14:04:06.228Z,1.33
2023-01-21T14:06:42.338Z,1.30
2023-01-21T14:09:14.097Z,1.54
2023-01-21T14:11:44.792Z,1.58
2023-01-21T14:14:31.038Z,1.79
2023-01-21T14:17:06.964Z,1.95
2023-01-21T14:19:52.310Z,1.71
2023-01-21T14:22:25.145Z,1.15
2023-01-21T14:24:54.965Z,1.44
2023-01-21T14:27:40.703Z,1.33
2023-01-21T14:30:15.720Z,1.69
2023-01-21T14:32:48.672Z,1.25
2023-01-21T14:35:20.035Z,1.66
2023-01-21T14:37:54.539Z,1.30
2023-01-21T14:40:29.336Z,2.01
2023-01-21T14:42:56.322Z,1.57
2023-01-21T14:45:25.966Z,1.42
2023-01-21T14:47:53.715Z,1.42
2023-01-21T14:50:39.209Z,1.49
2023-01-21T14:53:13.391Z,1.70
2023-01-21T14:55:40.230Z,1.68
2023-01-21T14:58:15.229Z,1.16
2023-01-21T15:00:46.732Z,1.40
2023-01-21T15:03:27.212Z,1.15
2023-01-21T15:05:55.556Z,1.30
2023-01-21T15:08:24.150Z,1.34
2023-01-21T15:10:53.791Z,1.22
2023-01-21T15:13:31.012Z,1.10
2023-01-21T15:16:16.298Z,1.45
2023-01-21T15:19:05.651Z,1.37
2023-01-21T15:21:41.718Z,1.18
2023-01-21T15:24:24.777Z,1.45
2023-01-21T15:27:10.060Z,1.36
2023-01-21T15:29:38.061Z,1.04
2023-01-21T15:32:23.622Z,1.18
2023-01-21T15:34:51.767Z,1.14
2023-01-21T15:37:21.599Z,1.23
2023-01-21T15:39:52.483Z,1.07
2023-01-21T15:42:44.421Z,1.08
2023-01-21T15:45:11.162Z,1.25
2023-01-21T15:47:49.873Z,1.20
2023-01-21T15:50:19.698Z,1.41
2023-01-21T15:52:58.756Z,1.15
2023-01-21T15:55:44.216Z,1.13
2023-01-21T15:58:21.954Z,1.11
2023-01-21T16:00:48.702Z,0.89
2023-01-21T16:03:18.257Z,0.94
2023-01-21T16:06:10.277Z,0.97
2023-01-21T16:08:37.061Z,1.22
2023-01-21T16:11:22.415Z,1.02
2023-01-21T16:14:05.137Z,1.03
2023-01-21T16:16:32.198Z,0.80
2023-01-21T16:18:59.573Z,0.74
2023-01-21T16:21:33.283Z,0.82
2023-01-21T16:24:02.962Z,0.78
2023-01-21T16:26:32.853Z,1.08
2023-01-21T16:28:59.862Z,1.07
2023-01-21T16:31:26.727Z,0.94
2023-01-21T16:33:54.423Z,0.90
2023-01-21T16:36:22.201Z,0.91
2023-01-21T16:38:49.065Z,0.85
2023-01-21T16:41:19.414Z,0.84
2023-01-21T16:43:48.124Z,0.93
2023-01-21T16:46:16.475Z,1.12
2023-01-21T16:48:43.296Z,1.03
2023-01-21T16:51:28.897Z,1.06
2023-01-21T16:54:14.488Z,1.12
2023-01-21T16:56:47.079Z,1.10
2023-01-21T16:59:21.279Z,0.68
2023-01-21T17:01:49.262Z,0.71
2023-01-21T17:04:16.092Z,0.88
2023-01-21T17:06:44.547Z,0.72
2023-01-21T17:09:22.171Z,0.74
2023-01-21T17:11:49.286Z,0.77
2023-01-21T17:14:20.991Z,0.87
2023-01-21T17:16:47.946Z,1.16
2023-01-21T17:19:32.775Z,1.00
2023-01-21T17:22:00.784Z,0.93
2023-01-21T17:24:40.382Z,1.31
2023-01-21T17:27:09.232Z,1.14
2023-01-21T17:29:36.036Z,0.99
2023-01-21T17:32:03.007Z,1.28
2023-01-21T17:34:30.926Z,1.15
2023-01-21T17:36:57.893Z,1.30
2023-01-21T17:39:43.059Z,1.25
2023-01-21T17:42:15.481Z,1.09
2023-01-21T17:44:45.721Z,0.86
2023-01-21T17:47:21.807Z,0.88
2023-01-21T17:49:48.688Z,0.59
2023-01-21T17:52:20.025Z,1.00
2023-01-21T17:54:48.352Z,0.98
2023-01-21T17:57:34.439Z,0.84
2023-01-21T18:00:01.324Z,0.84
2023-01-21T18:02:28.075Z,0.79
2023-01-21T18:04:54.790Z,0.92
2023-01-21T18:07:23.136Z,0.82
2023-01-21T18:09:50.672Z,0.68
2023-01-21T18:12:19.590Z,0.91
2023-01-21T18:14:46.783Z,1.12
2023-01-21T18:17:24.043Z,0.83
2023-01-21T18:19:50.804Z,1.23
2023-01-21T18:22:21.809Z,1.16
2023-01-21T18:24:48.602Z,1.12
2023-01-21T18:27:15.403Z,1.00
2023-01-21T18:29:43.556Z,0.81
2023-01-21T18:32:12.361Z,0.89
2023-01-21T18:34:39.140Z,1.06
2023-01-21T18:37:19.155Z,1.45
2023-01-21T18:39:46.675Z,1.25
2023-01-21T18:42:14.329Z,1.49
2023-01-21T18:44:41.340Z,1.30
2023-01-21T18:47:15.223Z,1.58
2023-01-21T18:49:42.656Z,1.17
2023-01-21T18:52:10.625Z,1.34
2023-01-21T18:54:37.365Z,1.43
2023-01-21T18:57:04.302Z,1.18
2023-01-21T18:59:31.040Z,1.07
2023-01-21T19:01:57.824Z,0.90
2023-01-21T19:04:24.662Z,0.93
2023-01-21T19:06:53.461Z,1.16
2023-01-21T19:09:21.809Z,1.05
2023-01-21T19:11:48.772Z,1.15
2023-01-21T19:14:15.548Z,1.10
2023-01-21T19:16:43.003Z,1.34
2023-01-21T19:19:13.133Z,1.06
2023-01-21T19:21:40.308Z,1.28
2023-01-21T19:24:08.995Z,0.92
2023-01-21T19:26:37.784Z,1.07
2023-01-21T19:29:05.014Z,1.17
2023-01-21T19:31:32.591Z,0.90
2023-01-21T19:33:59.389Z,0.94
2023-01-21T19:36:26.335Z,1.20
2023-01-21T19:38:57.417Z,1.33
2023-01-21T19:41:24.824Z,0.83
2023-01-21T19:43:51.617Z,1.18
2023-01-21T19:46:18.672Z,1.11
2023-01-21T19:48:45.363Z,0.98
2023-01-21T19:51:12.288Z,0.79
2023-01-21T19:53:39.121Z,0.79
2023-01-21T19:56:06.131Z,1.10
2023-01-21T19:58:32.929Z,0.88
2023-01-21T20:00:59.756Z,1.07
2023-01-21T20:03:28.343Z,1.31
2023-01-21T20:05:58.683Z,1.08
2023-01-21T20:08:27.900Z,1.03
2023-01-21T20:10:54.772Z,0.92
2023-01-21T20:13:21.484Z,1.08
2023-01-21T20:15:49.895Z,1.27
2023-01-21T20:18:24.814Z,1.14
2023-01-21T20:20:52.331Z,1.07
2023-01-21T20:23:20.282Z,1.06
2023-01-21T20:25:50.197Z,0.86
2023-01-21T20:28:24.463Z,1.27
2023-01-21T20:30:52.241Z,0.87
2023-01-21T20:33:20.304Z,1.03
2023-01-21T20:35:51.141Z,0.94
2023-01-21T20:38:20.040Z,1.04
2023-01-21T20:40:46.811Z,1.35
2023-01-21T20:43:13.527Z,1.28
2023-01-21T20:45:44.857Z,1.30
2023-01-21T20:48:19.903Z,1.10
2023-01-21T20:50:46.867Z,1.11
2023-01-21T20:53:13.720Z,1.66
2023-01-21T20:55:40.615Z,1.28
2023-01-21T20:58:07.558Z,1.27
2023-01-21T21:00:35.603Z,0.97
2023-01-21T21:03:02.686Z,1.00
2023-01-21T21:05:29.471Z,0.87
2023-01-21T21:07:56.194Z,0.94
2023-01-21T21:10:26.057Z,0.95
2023-01-21T21:12:53.186Z,0.99
2023-01-21T21:15:20.700Z,1.01
2023-01-21T21:17:47.836Z,0.92
2023-01-21T21:20:15.395Z,0.95
2023-01-21T21:22:42.231Z,0.93
2023-01-21T21:25:13.318Z,0.97
2023-01-21T21:27:39.986Z,0.96
2023-01-21T21:30:08.933Z,1.08
2023-01-21T21:32:36.758Z,1.18
2023-01-21T21:35:03.592Z,0.87
2023-01-21T21:37:31.435Z,0.84
2023-01-21T21:39:58.596Z,1.11
2023-01-21T21:42:44.015Z,0.79
2023-01-21T21:45:10.983Z,1.01
2023-01-21T21:47:56.457Z,0.68
2023-01-21T21:50:23.230Z,0.91
2023-01-21T21:52:49.878Z,1.02
2023-01-21T21:55:19.599Z,0.81
2023-01-21T21:57:46.425Z,0.92
2023-01-21T22:00:13.653Z,1.10
2023-01-21T22:02:40.376Z,1.08
2023-01-21T22:05:07.304Z,0.96
2023-01-21T22:07:34.076Z,0.96
2023-01-21T22:10:00.780Z,0.84
2023-01-21T22:12:27.510Z,0.87
2023-01-21T22:14:54.371Z,0.82
2023-01-21T22:17:21.158Z,0.79
2023-01-21T22:19:48.005Z,0.77
2023-01-21T22:22:14.926Z,0.79
2023-01-21T22:24:41.790Z,0.88
2023-01-21T22:27:08.637Z,0.71
2023-01-21T22:29:35.303Z,0.81
2023-01-21T22:32:03.982Z,1.29
2023-01-21T22:34:30.791Z,0.89
2023-01-21T22:36:57.539Z,0.96
2023-01-21T22:39:24.587Z,0.78
2023-01-21T22:41:52.852Z,0.82
2023-01-21T22:44:19.662Z,0.83
2023-01-21T22:46:46.416Z,0.85
2023-01-21T22:49:13.101Z,1.37
2023-01-21T22:51:39.872Z,0.85
2023-01-21T22:54:07.675Z,0.85
2023-01-21T22:56:51.192Z,1.11
2023-01-21T22:59:19.141Z,0.74
2023-01-21T23:01:45.956Z,0.82
2023-01-21T23:04:12.721Z,0.82
2023-01-21T23:06:39.484Z,1.03
2023-01-21T23:09:09.257Z,1.16
2023-01-21T23:11:38.188Z,1.02
2023-01-21T23:14:05.370Z,1.13
2023-01-21T23:16:32.194Z,0.80
2023-01-21T23:18:59.213Z,1.07
2023-01-21T23:21:27.044Z,1.09
2023-01-21T23:23:53.782Z,0.95
2023-01-21T23:26:21.093Z,1.27
2023-01-21T23:28:53.791Z,1.20
2023-01-21T23:31:20.718Z,0.94
2023-01-21T23:33:59.684Z,0.77
2023-01-21T23:36:26.592Z,0.98
2023-01-21T23:38:54.254Z,1.09
2023-01-21T23:41:21.298Z,1.07
2023-01-21T23:43:47.994Z,1.18
2023-01-21T23:46:22.422Z,1.32
2023-01-21T23:48:49.354Z,1.35
2023-01-21T23:51:17.009Z,1.16
2023-01-21T23:53:43.703Z,0.86
2023-01-21T23:56:15.578Z,1.19
2023-01-21T23:58:42.370Z,1.22
